createdAt,value
2022-12-18T00:01:37.605Z,-9.00
2022-12-18T00:04:06.705Z,-9.00
2022-12-18T00:06:34.514Z,-9.00
2022-12-18T00:09:05.853Z,-9.10
2022-12-18T00:11:33.076Z,-9.10
2022-12-18T00:14:00.788Z,-9.00
2022-12-18T00:16:39.099Z,-9.00
2022-12-18T00:19:09.107Z,-9.00
2022-12-18T00:21:38.164Z,-9.00
2022-12-18T00:24:05.142Z,-8.90
2022-12-18T00:26:36.601Z,-8.90
2022-12-18T00:29:07.836Z,-8.90
2022-12-18T00:31:35.175Z,-9.00
2022-12-18T00:34:05.395Z,-9.10
2022-12-18T00:36:35.372Z,-9.10
2022-12-18T00:39:04.041Z,-9.00
2022-12-18T00:41:49.232Z,-9.10
2022-12-18T00:44:19.310Z,-9.10
2022-12-18T00:46:47.410Z,-9.10
2022-12-18T00:49:14.542Z,-9.10
2022-12-18T00:51:41.866Z,-9.00
2022-12-18T00:54:08.961Z,-9.00
2022-12-18T00:56:45.752Z,-9.10
2022-12-18T00:59:15.975Z,-9.20
2022-12-18T01:01:45.806Z,-9.20
2022-12-18T01:04:12.744Z,-9.20
2022-12-18T01:06:39.492Z,-9.10
2022-12-18T01:09:07.076Z,-9.10
2022-12-18T01:11:33.780Z,-9.00
2022-12-18T01:14:02.727Z,-8.90
2022-12-18T01:16:29.561Z,-8.90
2022-12-18T01:18:56.579Z,-8.90
2022-12-18T01:21:25.029Z,-8.90
2022-12-18T01:24:00.913Z,-9.00
2022-12-18T01:26:30.618Z,-9.10
2022-12-18T01:28:58.193Z,-9.10
2022-12-18T01:31:27.916Z,-9.10
2022-12-18T01:33:55.640Z,-8.90
2022-12-18T01:36:31.494Z,-9.00
2022-12-18T01:39:01.390Z,-9.10
2022-12-18T01:41:53.058Z,-9.10
2022-12-18T01:44:57.163Z,-9.10
2022-12-18T01:47:32.829Z,-9.00
2022-12-18T01:50:04.207Z,-9.10
2022-12-18T01:52:33.724Z,-9.20
2022-12-18T01:55:02.557Z,-9.20
2022-12-18T01:57:29.972Z,-9.30
2022-12-18T02:00:03.096Z,-9.30
2022-12-18T02:02:32.719Z,-9.30
2022-12-18T02:04:59.604Z,-9.40
2022-12-18T02:07:37.284Z,-9.40
2022-12-18T02:10:07.711Z,-9.30
2022-12-18T02:13:02.880Z,-9.30
2022-12-18T02:15:41.625Z,-9.20
2022-12-18T02:18:32.113Z,-9.20
2022-12-18T02:21:31.731Z,-9.30
2022-12-18T02:24:11.346Z,-9.40
2022-12-18T02:26:45.287Z,-9.40
2022-12-18T02:29:21.564Z,-9.50
2022-12-18T02:31:58.069Z,-9.50
2022-12-18T02:34:29.068Z,-9.30
2022-12-18T02:36:58.774Z,-9.20
2022-12-18T02:39:28.052Z,-9.30
2022-12-18T02:41:57.631Z,-9.30
2022-12-18T02:44:24.379Z,-9.30
2022-12-18T02:46:53.865Z,-9.30
2022-12-18T02:49:37.110Z,-9.30
2022-12-18T02:52:39.187Z,-9.20
2022-12-18T02:55:36.441Z,-9.20
2022-12-18T02:58:27.936Z,-9.30
2022-12-18T03:01:05.197Z,-9.40
2022-12-18T03:03:43.224Z,-9.30
2022-12-18T03:06:27.445Z,-9.40
2022-12-18T03:08:59.580Z,-9.40
2022-12-18T03:11:49.373Z,-9.30
2022-12-18T03:14:20.164Z,-9.30
2022-12-18T03:16:50.528Z,-9.20
2022-12-18T03:19:22.533Z,-9.20
2022-12-18T03:21:55.243Z,-9.30
2022-12-18T03:24:23.350Z,-9.30
2022-12-18T03:26:55.754Z,-9.40
2022-12-18T03:29:48.730Z,-9.40
2022-12-18T03:32:34.158Z,-9.40
2022-12-18T03:35:04.973Z,-9.40
2022-12-18T03:37:31.967Z,-9.30
2022-12-18T03:39:59.000Z,-9.30
2022-12-18T03:42:50.999Z,-9.20
2022-12-18T03:45:36.016Z,-9.30
2022-12-18T03:48:14.369Z,-9.30
2022-12-18T03:50:56.968Z,-9.30
2022-12-18T03:53:42.717Z,-9.30
2022-12-18T03:56:10.756Z,-9.30
2022-12-18T03:58:39.731Z,-9.40
2022-12-18T04:01:10.987Z,-9.40
2022-12-18T04:03:39.103Z,-9.50
2022-12-18T04:06:07.209Z,-9.40
2022-12-18T04:08:35.906Z,-9.40
2022-12-18T04:11:03.790Z,-9.30
2022-12-18T04:13:42.192Z,-9.40
2022-12-18T04:16:10.398Z,-9.30
2022-12-18T04:18:37.514Z,-9.50
2022-12-18T04:21:04.833Z,-9.40
2022-12-18T04:23:31.621Z,-9.40
2022-12-18T04:25:58.365Z,-9.50
2022-12-18T04:28:25.115Z,-9.40
2022-12-18T04:30:51.890Z,-9.40
2022-12-18T04:33:18.707Z,-9.50
2022-12-18T04:35:46.680Z,-9.70
2022-12-18T04:38:16.492Z,-9.60
2022-12-18T04:40:44.061Z,-9.60
2022-12-18T04:43:11.050Z,-9.60
2022-12-18T04:45:40.709Z,-9.70
2022-12-18T04:48:07.459Z,-9.70
2022-12-18T04:50:34.098Z,-9.70
2022-12-18T04:53:00.804Z,-9.70
2022-12-18T04:55:28.387Z,-9.70
2022-12-18T04:57:55.194Z,-9.60
2022-12-18T05:00:22.938Z,-9.60
2022-12-18T05:02:49.718Z,-9.60
2022-12-18T05:05:18.833Z,-9.50
2022-12-18T05:07:47.794Z,-9.50
2022-12-18T05:10:14.576Z,-9.50
2022-12-18T05:12:59.006Z,-9.40
2022-12-18T05:15:31.899Z,-9.50
2022-12-18T05:18:04.680Z,-9.60
2022-12-18T05:20:34.061Z,-9.60
2022-12-18T05:23:00.790Z,-9.60
2022-12-18T05:25:32.456Z,-9.60
2022-12-18T05:27:59.292Z,-9.70
2022-12-18T05:30:26.626Z,-9.80
2022-12-18T05:32:55.548Z,-9.80
2022-12-18T05:35:22.277Z,-9.80
2022-12-18T05:37:51.327Z,-9.80
2022-12-18T05:40:18.103Z,-9.70
2022-12-18T05:42:44.817Z,-9.60
2022-12-18T05:45:11.510Z,-9.60
2022-12-18T05:47:38.180Z,-9.60
2022-12-18T05:50:08.053Z,-9.60
2022-12-18T05:52:34.733Z,-9.50
2022-12-18T05:55:01.379Z,-9.60
2022-12-18T05:57:28.112Z,-9.60
2022-12-18T05:59:54.845Z,-9.60
2022-12-18T06:02:22.113Z,-9.60
2022-12-18T06:04:49.687Z,-9.60
2022-12-18T06:07:18.934Z,-9.60
2022-12-18T06:09:47.998Z,-9.50
2022-12-18T06:12:14.694Z,-9.50
2022-12-18T06:14:43.829Z,-9.40
2022-12-18T06:17:10.604Z,-9.40
2022-12-18T06:19:37.470Z,-9.50
2022-12-18T06:22:04.422Z,-9.60
2022-12-18T06:24:34.056Z,-9.60
2022-12-18T06:27:00.867Z,-9.70
2022-12-18T06:29:27.617Z,-9.70
2022-12-18T06:32:01.393Z,-9.80
2022-12-18T06:34:28.130Z,-9.80
2022-12-18T06:36:54.974Z,-9.80
2022-12-18T06:39:21.685Z,-9.60
2022-12-18T06:41:48.408Z,-9.60
2022-12-18T06:44:15.336Z,-9.70
2022-12-18T06:46:42.090Z,-9.70
2022-12-18T06:49:11.278Z,-9.70
2022-12-18T06:51:40.741Z,-9.80
2022-12-18T06:54:10.028Z,-9.70
2022-12-18T06:56:38.964Z,-9.60
2022-12-18T06:59:05.750Z,-9.60
2022-12-18T07:01:34.827Z,-9.60
2022-12-18T07:04:01.662Z,-9.70
2022-12-18T07:06:28.365Z,-9.50
2022-12-18T07:08:56.053Z,-9.40
2022-12-18T07:11:23.382Z,-9.30
2022-12-18T07:13:50.153Z,-9.20
2022-12-18T07:16:24.837Z,-9.20
2022-12-18T07:18:52.471Z,-9.10
2022-12-18T07:21:22.685Z,-9.10
2022-12-18T07:23:51.679Z,-9.20
2022-12-18T07:26:22.361Z,-9.20
2022-12-18T07:28:51.839Z,-9.20
2022-12-18T07:31:22.025Z,-9.20
2022-12-18T07:33:52.199Z,-9.20
2022-12-18T07:36:19.466Z,-9.30
2022-12-18T07:38:51.229Z,-9.30
2022-12-18T07:41:20.145Z,-9.20
2022-12-18T07:43:49.775Z,-9.20
2022-12-18T07:46:19.043Z,-9.10
2022-12-18T07:48:49.973Z,-9.10
2022-12-18T07:51:18.537Z,-9.00
2022-12-18T07:53:52.833Z,-9.00
2022-12-18T07:56:28.983Z,-8.90
2022-12-18T07:58:57.250Z,-8.90
2022-12-18T08:01:24.330Z,-8.90
2022-12-18T08:03:52.094Z,-8.90
2022-12-18T08:06:22.569Z,-8.90
2022-12-18T08:08:55.053Z,-8.90
2022-12-18T08:11:27.768Z,-8.70
2022-12-18T08:13:57.149Z,-8.50
2022-12-18T08:16:24.601Z,-8.40
2022-12-18T08:18:53.637Z,-8.40
2022-12-18T08:21:29.283Z,-8.40
2022-12-18T08:24:00.869Z,-8.30
2022-12-18T08:26:28.502Z,-8.30
2022-12-18T08:29:00.202Z,-8.20
2022-12-18T08:31:30.512Z,-8.10
2022-12-18T08:33:57.561Z,-8.10
2022-12-18T08:36:27.427Z,-8.10
2022-12-18T08:38:56.825Z,-8.10
2022-12-18T08:41:23.810Z,-8.00
2022-12-18T08:44:08.955Z,-7.90
2022-12-18T08:46:40.928Z,-7.90
2022-12-18T08:49:11.569Z,-7.90
2022-12-18T08:51:38.989Z,-7.80
2022-12-18T08:54:09.174Z,-7.80
2022-12-18T08:56:38.527Z,-7.70
2022-12-18T08:59:06.225Z,-7.70
2022-12-18T09:01:33.122Z,-7.60
2022-12-18T09:04:00.801Z,-7.50
2022-12-18T09:06:27.609Z,-7.30
2022-12-18T09:08:54.505Z,-7.20
2022-12-18T09:11:26.365Z,-7.10
2022-12-18T09:13:58.974Z,-7.00
2022-12-18T09:16:31.684Z,-7.00
2022-12-18T09:19:05.151Z,-6.90
2022-12-18T09:21:37.158Z,-6.90
2022-12-18T09:24:05.183Z,-6.90
2022-12-18T09:26:38.011Z,-6.80
2022-12-18T09:29:05.796Z,-6.70
2022-12-18T09:31:32.573Z,-6.70
2022-12-18T09:34:04.085Z,-6.60
2022-12-18T09:36:33.247Z,-6.50
2022-12-18T09:39:07.593Z,-6.50
2022-12-18T09:41:44.033Z,-6.40
2022-12-18T09:44:10.994Z,-6.30
2022-12-18T09:46:44.704Z,-6.20
2022-12-18T09:49:19.647Z,-6.20
2022-12-18T09:51:57.080Z,-6.00
2022-12-18T09:54:31.268Z,-5.90
2022-12-18T09:57:00.521Z,-5.80
2022-12-18T09:59:38.978Z,-5.80
2022-12-18T10:02:27.750Z,-5.70
2022-12-18T10:05:00.404Z,-5.60
2022-12-18T10:07:53.209Z,-5.40
2022-12-18T10:10:34.240Z,-5.30
2022-12-18T10:13:36.623Z,-5.20
2022-12-18T10:16:40.439Z,-5.10
2022-12-18T10:19:35.166Z,-5.00
2022-12-18T10:22:52.547Z,-4.80
2022-12-18T10:25:49.665Z,-4.60
2022-12-18T10:28:20.633Z,-4.40
2022-12-18T10:30:47.441Z,-4.30
2022-12-18T10:33:25.099Z,-4.00
2022-12-18T10:35:55.758Z,-3.90
2022-12-18T10:38:33.591Z,-3.70
2022-12-18T10:41:12.460Z,-3.50
2022-12-18T10:43:42.019Z,-3.40
2022-12-18T10:46:08.871Z,-3.30
2022-12-18T10:48:41.843Z,-3.20
2022-12-18T10:51:12.982Z,-3.10
2022-12-18T10:53:43.704Z,-3.10
2022-12-18T10:56:13.312Z,-3.10
2022-12-18T10:58:42.877Z,-3.10
2022-12-18T11:01:14.309Z,-3.10
2022-12-18T11:03:45.001Z,-3.00
2022-12-18T11:06:15.730Z,-2.90
2022-12-18T11:08:47.224Z,-2.80
2022-12-18T11:11:26.625Z,-2.70
2022-12-18T11:14:06.240Z,-2.50
2022-12-18T11:16:57.841Z,-2.40
2022-12-18T11:19:41.987Z,-2.30
2022-12-18T11:22:32.229Z,-2.20
2022-12-18T11:25:30.666Z,-2.10
2022-12-18T11:28:00.531Z,-2.10
2022-12-18T11:30:30.867Z,-2.10
2022-12-18T11:33:04.361Z,-2.00
2022-12-18T11:35:36.091Z,-1.90
2022-12-18T11:38:26.465Z,-1.80
2022-12-18T11:41:00.050Z,-1.80
2022-12-18T11:43:35.173Z,-1.70
2022-12-18T11:46:34.463Z,-1.70
2022-12-18T11:49:40.945Z,-1.70
2022-12-18T11:52:19.143Z,-1.70
2022-12-18T11:54:46.141Z,-1.60
2022-12-18T11:57:39.316Z,-1.60
2022-12-18T12:00:15.888Z,-1.60
2022-12-18T12:03:00.627Z,-1.60
2022-12-18T12:05:35.357Z,-1.70
2022-12-18T12:08:31.396Z,-1.70
2022-12-18T12:11:25.470Z,-1.60
2022-12-18T12:13:57.417Z,-1.60
2022-12-18T12:16:43.182Z,-1.60
2022-12-18T12:19:33.982Z,-1.50
2022-12-18T12:22:09.584Z,-1.50
2022-12-18T12:25:00.794Z,-1.50
2022-12-18T12:27:33.262Z,-1.50
2022-12-18T12:30:08.877Z,-1.40
2022-12-18T12:32:53.164Z,-1.40
2022-12-18T12:35:38.386Z,-1.40
2022-12-18T12:38:10.672Z,-1.30
2022-12-18T12:40:53.798Z,-1.30
2022-12-18T12:43:49.444Z,-1.30
2022-12-18T12:46:35.688Z,-1.20
2022-12-18T12:49:10.790Z,-1.20
2022-12-18T12:51:44.820Z,-1.20
2022-12-18T12:54:48.614Z,-1.10
2022-12-18T12:57:52.452Z,-1.10
2022-12-18T13:00:25.348Z,-1.00
2022-12-18T13:03:01.506Z,-1.00
2022-12-18T13:05:58.584Z,-1.00
2022-12-18T13:08:54.443Z,-1.00
2022-12-18T13:11:54.925Z,-0.90
2022-12-18T13:14:31.184Z,-0.90
2022-12-18T13:17:17.756Z,-0.90
2022-12-18T13:20:09.360Z,-0.90
2022-12-18T13:22:37.731Z,-0.90
2022-12-18T13:26:02.701Z,-0.90
2022-12-18T13:28:47.819Z,-0.90
2022-12-18T13:31:44.716Z,-0.90
2022-12-18T13:34:27.777Z,-0.90
2022-12-18T13:37:00.717Z,-0.90
2022-12-18T13:39:35.753Z,-0.90
2022-12-18T13:42:05.841Z,-0.90
2022-12-18T13:44:42.714Z,-0.90
2022-12-18T13:47:32.865Z,-1.00
2022-12-18T13:50:00.743Z,-0.90
2022-12-18T13:52:37.085Z,-1.00
2022-12-18T13:55:15.722Z,-1.00
2022-12-18T13:57:42.665Z,-1.10
2022-12-18T14:00:30.454Z,-1.00
2022-12-18T14:02:59.223Z,-1.00
2022-12-18T14:05:33.474Z,-1.10
2022-12-18T14:08:06.578Z,-1.00
2022-12-18T14:10:44.328Z,-1.10
2022-12-18T14:13:31.235Z,-1.10
2022-12-18T14:15:59.187Z,-1.20
2022-12-18T14:18:50.027Z,-1.20
2022-12-18T14:21:33.532Z,-1.20
2022-12-18T14:24:06.151Z,-1.30
2022-12-18T14:26:35.911Z,-1.20
2022-12-18T14:29:21.950Z,-1.30
2022-12-18T14:32:18.737Z,-1.40
2022-12-18T14:34:51.740Z,-1.50
2022-12-18T14:37:22.586Z,-1.60
2022-12-18T14:40:11.075Z,-1.50
2022-12-18T14:42:41.674Z,-1.60
2022-12-18T14:45:43.114Z,-1.70
2022-12-18T14:48:17.792Z,-1.70
2022-12-18T14:51:06.644Z,-1.70
2022-12-18T14:53:37.731Z,-1.90
2022-12-18T14:56:16.951Z,-1.90
2022-12-18T14:58:49.483Z,-2.00
2022-12-18T15:01:21.132Z,-2.00
2022-12-18T15:03:50.342Z,-2.10
2022-12-18T15:06:29.160Z,-2.10
2022-12-18T15:08:56.013Z,-2.10
2022-12-18T15:11:46.965Z,-2.20
2022-12-18T15:14:46.295Z,-2.10
2022-12-18T15:17:24.564Z,-2.20
2022-12-18T15:20:09.933Z,-2.20
2022-12-18T15:22:37.797Z,-2.20
2022-12-18T15:25:32.652Z,-2.30
2022-12-18T15:28:01.735Z,-2.30
2022-12-18T15:30:33.271Z,-2.30
2022-12-18T15:33:25.839Z,-2.40
2022-12-18T15:36:04.941Z,-2.40
2022-12-18T15:38:35.028Z,-2.40
2022-12-18T15:41:11.635Z,-2.40
2022-12-18T15:43:43.586Z,-2.40
2022-12-18T15:46:18.381Z,-2.60
2022-12-18T15:48:56.703Z,-2.60
2022-12-18T15:51:34.049Z,-2.50
2022-12-18T15:54:05.739Z,-2.60
2022-12-18T15:56:51.090Z,-2.40
2022-12-18T15:59:22.749Z,-2.50
2022-12-18T16:01:54.500Z,-2.60
2022-12-18T16:04:21.783Z,-2.60
2022-12-18T16:09:39.669Z,-2.80
2022-12-18T16:12:10.916Z,-2.80
2022-12-18T16:14:39.744Z,-2.80
2022-12-18T16:17:14.317Z,-2.70
2022-12-18T16:19:44.424Z,-2.70
2022-12-18T16:22:31.256Z,-2.80
2022-12-18T16:24:58.590Z,-2.90
2022-12-18T16:27:28.339Z,-3.00
2022-12-18T16:30:02.852Z,-3.10
2022-12-18T16:32:29.601Z,-3.20
2022-12-18T16:35:06.146Z,-3.30
2022-12-18T16:37:32.906Z,-3.30
2022-12-18T16:39:59.673Z,-3.40
2022-12-18T16:42:31.155Z,-3.40
2022-12-18T16:44:57.846Z,-3.30
2022-12-18T16:47:26.895Z,-3.30
2022-12-18T16:49:55.956Z,-3.40
2022-12-18T16:52:22.847Z,-3.50
2022-12-18T16:54:51.934Z,-3.50
2022-12-18T16:57:21.004Z,-3.60
2022-12-18T16:59:50.125Z,-3.70
2022-12-18T17:02:29.072Z,-3.80
2022-12-18T17:04:57.921Z,-3.90
2022-12-18T17:07:30.086Z,-3.80
2022-12-18T17:09:59.737Z,-3.80
2022-12-18T17:12:28.579Z,-3.80
2022-12-18T17:14:59.962Z,-3.90
2022-12-18T17:17:31.427Z,-3.90
2022-12-18T17:20:00.507Z,-3.90
2022-12-18T17:22:29.465Z,-3.90
2022-12-18T17:24:58.426Z,-3.90
2022-12-18T17:27:27.717Z,-3.90
2022-12-18T17:29:57.470Z,-3.80
2022-12-18T17:32:24.305Z,-3.80
2022-12-18T17:34:51.063Z,-3.90
2022-12-18T17:37:17.915Z,-3.90
2022-12-18T17:39:44.874Z,-4.00
2022-12-18T17:42:15.293Z,-4.00
2022-12-18T17:44:44.970Z,-4.00
2022-12-18T17:47:13.401Z,-4.00
2022-12-18T17:49:42.838Z,-4.00
2022-12-18T17:52:10.250Z,-4.00
2022-12-18T17:54:42.032Z,-4.00
2022-12-18T17:57:09.147Z,-4.00
2022-12-18T17:59:38.107Z,-4.00
2022-12-18T18:02:05.032Z,-4.00
2022-12-18T18:04:31.861Z,-3.90
2022-12-18T18:07:01.193Z,-3.90
2022-12-18T18:09:30.114Z,-3.80
2022-12-18T18:12:15.250Z,-3.80
2022-12-18T18:14:48.934Z,-3.80
2022-12-18T18:17:16.192Z,-3.70
2022-12-18T18:19:49.530Z,-3.70
2022-12-18T18:22:21.148Z,-3.70
2022-12-18T18:24:52.369Z,-3.60
2022-12-18T18:27:23.768Z,-3.60
2022-12-18T18:29:58.206Z,-3.70
2022-12-18T18:32:27.417Z,-3.60
2022-12-18T18:34:56.478Z,-3.60
2022-12-18T18:37:23.267Z,-3.60
2022-12-18T18:39:50.096Z,-3.60
2022-12-18T18:42:16.785Z,-3.60
2022-12-18T18:44:49.056Z,-3.60
2022-12-18T18:47:18.264Z,-3.60
2022-12-18T18:49:47.519Z,-3.60
2022-12-18T18:52:14.389Z,-3.60
2022-12-18T18:54:57.113Z,-3.50
2022-12-18T18:57:30.504Z,-3.50
2022-12-18T18:59:57.483Z,-3.40
2022-12-18T19:02:27.431Z,-3.30
2022-12-18T19:04:54.223Z,-3.30
2022-12-18T19:07:30.681Z,-3.40
2022-12-18T19:10:01.507Z,-3.40
2022-12-18T19:12:53.032Z,-3.40
2022-12-18T19:15:20.000Z,-3.40
2022-12-18T19:17:47.585Z,-3.40
2022-12-18T19:20:15.232Z,-3.40
2022-12-18T19:22:42.117Z,-3.30
2022-12-18T19:25:09.908Z,-3.30
2022-12-18T19:27:38.887Z,-3.30
2022-12-18T19:30:06.458Z,-3.30
2022-12-18T19:32:36.414Z,-3.30
2022-12-18T19:35:03.184Z,-3.20
2022-12-18T19:37:30.800Z,-3.20
2022-12-18T19:39:57.538Z,-3.20
2022-12-18T19:42:29.437Z,-3.30
2022-12-18T19:45:02.277Z,-3.20
2022-12-18T19:47:32.368Z,-3.30
2022-12-18T19:49:59.326Z,-3.30
2022-12-18T19:52:28.693Z,-3.30
2022-12-18T19:54:57.641Z,-3.30
2022-12-18T19:57:24.381Z,-3.20
2022-12-18T19:59:51.127Z,-3.20
2022-12-18T20:02:18.960Z,-3.20
2022-12-18T20:04:45.926Z,-3.20
2022-12-18T20:07:12.690Z,-3.20
2022-12-18T20:09:39.526Z,-3.30
2022-12-18T20:12:06.609Z,-3.30
2022-12-18T20:14:35.933Z,-3.30
2022-12-18T20:17:04.883Z,-3.40
2022-12-18T20:19:32.288Z,-3.30
2022-12-18T20:22:00.915Z,-3.30
2022-12-18T20:24:32.304Z,-3.40
2022-12-18T20:27:01.268Z,-3.40
2022-12-18T20:29:28.276Z,-3.30
2022-12-18T20:31:55.103Z,-3.30
2022-12-18T20:34:22.110Z,-3.30
2022-12-18T20:36:49.562Z,-3.20
2022-12-18T20:39:19.219Z,-3.30
2022-12-18T20:41:47.013Z,-3.30
2022-12-18T20:44:22.261Z,-3.30
2022-12-18T20:46:59.191Z,-3.30
2022-12-18T20:49:27.584Z,-3.30
2022-12-18T20:51:56.376Z,-3.20
2022-12-18T20:54:25.308Z,-3.20
2022-12-18T20:56:55.032Z,-3.20
2022-12-18T20:59:25.726Z,-3.30
2022-12-18T21:02:05.045Z,-3.30
2022-12-18T21:04:32.115Z,-3.30
2022-12-18T21:07:02.576Z,-3.30
2022-12-18T21:09:36.931Z,-3.30
2022-12-18T21:12:25.035Z,-3.30
2022-12-18T21:14:51.860Z,-3.30
2022-12-18T21:17:18.540Z,-3.40
2022-12-18T21:19:45.255Z,-3.30
2022-12-18T21:22:13.198Z,-3.40
2022-12-18T21:24:40.035Z,-3.40
2022-12-18T21:27:06.815Z,-3.30
2022-12-18T21:29:36.084Z,-3.30
2022-12-18T21:32:03.937Z,-3.30
2022-12-18T21:34:32.694Z,-3.30
2022-12-18T21:37:00.851Z,-3.30
2022-12-18T21:39:30.585Z,-3.30
2022-12-18T21:42:17.909Z,-3.30
2022-12-18T21:44:50.715Z,-3.20
2022-12-18T21:47:22.091Z,-3.30
2022-12-18T21:49:53.377Z,-3.30
2022-12-18T21:52:27.236Z,-3.10
2022-12-18T21:55:09.581Z,-3.10
2022-12-18T21:57:38.212Z,-3.00
2022-12-18T22:00:06.684Z,-2.90
2022-12-18T22:02:33.590Z,-2.80
2022-12-18T22:05:00.423Z,-2.70
2022-12-18T22:07:28.932Z,-2.70
2022-12-18T22:09:55.707Z,-2.70
2022-12-18T22:12:43.429Z,-2.70
2022-12-18T22:15:14.750Z,-2.70
2022-12-18T22:17:51.194Z,-2.80
2022-12-18T22:20:24.681Z,-2.80
2022-12-18T22:22:55.679Z,-2.80
2022-12-18T22:25:25.139Z,-2.80
2022-12-18T22:28:10.752Z,-2.70
2022-12-18T22:30:37.555Z,-2.70
2022-12-18T22:33:08.915Z,-2.70
2022-12-18T22:35:35.613Z,-2.70
2022-12-18T22:38:02.525Z,-2.70
2022-12-18T22:40:29.736Z,-2.70
2022-12-18T22:42:56.699Z,-2.70
2022-12-18T22:45:24.644Z,-2.70
2022-12-18T22:47:51.631Z,-2.70
2022-12-18T22:50:20.801Z,-2.70
2022-12-18T22:52:49.694Z,-2.60
2022-12-18T22:55:18.723Z,-2.60
2022-12-18T22:57:48.983Z,-2.50
2022-12-18T23:00:16.863Z,-2.60
2022-12-18T23:02:49.885Z,-2.60
2022-12-18T23:05:22.861Z,-2.50
2022-12-18T23:07:49.556Z,-2.50
2022-12-18T23:10:16.397Z,-2.40
2022-12-18T23:12:45.476Z,-2.40
2022-12-18T23:15:14.992Z,-2.40
2022-12-18T23:17:49.400Z,-2.40
2022-12-18T23:20:16.101Z,-2.40
2022-12-18T23:22:42.796Z,-2.40
2022-12-18T23:25:12.053Z,-2.40
2022-12-18T23:27:41.284Z,-2.40
2022-12-18T23:30:08.593Z,-2.40
2022-12-18T23:32:38.741Z,-2.50
2022-12-18T23:35:08.245Z,-2.40
2022-12-18T23:37:58.473Z,-2.40
2022-12-18T23:40:23.535Z,-2.40
2022-12-18T23:42:50.324Z,-2.40
2022-12-18T23:45:18.135Z,-2.30
2022-12-18T23:47:48.758Z,-2.30
2022-12-18T23:50:17.890Z,-2.30
2022-12-18T23:52:44.595Z,-2.30
2022-12-18T23:55:11.395Z,-2.30
2022-12-18T23:57:45.045Z,-2.20
